Time;durP1;ratioP1;P1;durP2;ratioP2;P2;SDS_P1;SDS_P2;PMS_P1;PMS_P2;Temp;Humidity;BMP_temperature;BMP_pressure;BME280_temperature;BME280_humidity;BME280_pressure;Samples;Min_cycle;Max_cycle;Signal;HPM_P1;HPM_P2
2022/10/07 00:01:48;;;;;;;15.75;8.40;;;24.10;56.40;;;;;;5031737;28;20113;-69
2022/10/07 00:04:15;;;;;;;13.82;7.40;;;24.20;56.30;;;;;;5030569;28;20096;-69
2022/10/07 00:06:41;;;;;;;15.65;8.02;;;24.40;56.30;;;;;;5031556;28;20033;-69
2022/10/07 00:09:07;;;;;;;16.83;7.30;;;24.20;56.30;;;;;;5031682;28;20045;-69
2022/10/07 00:11:33;;;;;;;19.10;8.07;;;24.20;56.30;;;;;;5030790;28;20036;-69
2022/10/07 00:14:01;;;;;;;15.45;7.75;;;24.20;56.30;;;;;;5030679;28;20040;-69
2022/10/07 00:16:34;;;;;;;13.52;7.22;;;24.10;56.30;;;;;;5030670;28;20034;-69
2022/10/07 00:19:01;;;;;;;;;;;24.10;56.30;;;;;;5029782;28;20479;-68
2022/10/07 00:21:29;;;;;;;14.50;8.43;;;24.10;56.40;;;;;;5030497;28;20437;-69
2022/10/07 00:23:55;;;;;;;14.85;7.28;;;24.10;56.50;;;;;;5030530;28;20083;-69
2022/10/07 00:26:24;;;;;;;14.93;7.60;;;24.20;56.50;;;;;;5029654;28;20037;-69
2022/10/07 00:28:50;;;;;;;17.30;8.05;;;24.20;56.50;;;;;;5031211;28;20032;-69
2022/10/07 00:31:20;;;;;;;13.38;7.03;;;24.30;56.50;;;;;;5030147;28;20037;-69
2022/10/07 00:33:47;;;;;;;14.63;7.55;;;24.30;56.50;;;;;;5031209;28;20033;-69
2022/10/07 00:36:17;;;;;;;14.65;7.07;;;24.10;56.40;;;;;;5031287;28;20096;-69
2022/10/07 00:38:44;;;;;;;15.68;7.53;;;24.20;56.40;;;;;;5029710;28;20136;-70
2022/10/07 00:41:17;;;;;;;10.30;6.75;;;24.20;56.30;;;;;;5030699;28;20034;-69
2022/10/07 00:43:43;;;;;;;17.42;7.18;;;24.30;56.40;;;;;;5029229;28;20098;-69
2022/10/07 00:46:15;;;;;;;17.92;7.28;;;24.30;56.30;;;;;;5030907;28;20068;-69
2022/10/07 00:48:45;;;;;;;12.57;6.67;;;24.20;56.20;;;;;;5011817;28;20038;-69
2022/10/07 00:51:14;;;;;;;13.48;7.38;;;24.30;56.20;;;;;;5029876;28;20033;-69
2022/10/07 00:53:40;;;;;;;15.15;7.90;;;24.20;56.10;;;;;;5013105;28;20049;-70
2022/10/07 00:56:07;;;;;;;12.60;6.93;;;24.20;56.20;;;;;;5029913;28;20049;-69
2022/10/07 00:58:36;;;;;;;12.13;5.90;;;24.30;56.30;;;;;;5030098;28;20032;-69
2022/10/07 01:01:02;;;;;;;11.50;6.45;;;24.20;56.20;;;;;;5030900;28;20632;-69
2022/10/07 01:03:29;;;;;;;11.52;6.65;;;24.20;56.20;;;;;;5029666;28;20064;-69
2022/10/07 01:05:55;;;;;;;11.07;6.57;;;24.20;56.20;;;;;;5029576;28;20064;-69
2022/10/07 01:08:22;;;;;;;12.70;6.60;;;24.10;56.10;;;;;;5031048;28;20021;-69
2022/10/07 01:10:53;;;;;;;11.05;6.28;;;24.30;56.30;;;;;;5030888;28;20034;-69
2022/10/07 01:13:59;;;;;;;9.52;6.40;;;24.20;56.20;;;;;;5030362;28;20048;-69
2022/10/07 01:16:54;;;;;;;11.13;6.03;;;24.20;56.10;;;;;;5029555;28;20103;-69
2022/10/07 01:19:56;;;;;;;15.32;6.97;;;24.20;56.10;;;;;;5030722;28;20036;-68
2022/10/07 01:22:46;;;;;;;10.25;6.40;;;24.30;56.10;;;;;;5030792;28;20060;-69
2022/10/07 01:25:31;;;;;;;12.90;6.03;;;24.30;56.10;;;;;;5030746;28;20414;-69
2022/10/07 01:28:05;;;;;;;10.30;5.85;;;24.10;56.00;;;;;;5030852;28;20044;-69
2022/10/07 01:30:35;;;;;;;7.80;5.70;;;24.20;56.00;;;;;;5013279;28;20032;-69
2022/10/07 01:33:05;;;;;;;11.95;6.40;;;24.20;56.10;;;;;;5029378;28;20032;-69
2022/10/07 01:35:35;;;;;;;10.32;6.07;;;24.20;56.00;;;;;;5030398;28;20025;-69
2022/10/07 01:38:07;;;;;;;10.85;5.93;;;24.20;56.10;;;;;;5011320;28;20108;-69
2022/10/07 01:40:41;;;;;;;13.95;6.13;;;24.20;56.20;;;;;;5028381;28;20060;-70
2022/10/07 01:43:08;;;;;;;10.75;6.53;;;24.20;56.10;;;;;;5029171;28;20033;-69
2022/10/07 01:45:38;;;;;;;12.63;6.57;;;24.20;56.20;;;;;;5007822;28;20061;-69
2022/10/07 01:48:05;;;;;;;10.45;5.80;;;24.20;56.30;;;;;;5007886;28;20038;-69
2022/10/07 01:50:32;;;;;;;12.60;6.97;;;24.20;56.20;;;;;;4991842;28;20052;-69
2022/10/07 01:53:22;;;;;;;10.45;6.28;;;24.20;56.30;;;;;;5007946;28;20045;-69
2022/10/07 01:55:49;;;;;;;11.82;6.25;;;24.10;56.30;;;;;;5008481;28;20124;-69
2022/10/07 01:58:39;;;;;;;12.20;6.30;;;24.20;56.30;;;;;;4995274;28;20052;-69
2022/10/07 02:01:37;;;;;;;10.73;6.13;;;24.20;56.30;;;;;;4995225;28;20038;-69
2022/10/07 02:04:20;;;;;;;8.90;6.13;;;24.40;56.40;;;;;;4962520;28;20180;-69
2022/10/07 02:07:11;;;;;;;10.13;6.40;;;24.20;56.30;;;;;;5011343;28;20053;-69
2022/10/07 02:09:49;;;;;;;11.52;6.10;;;24.20;56.30;;;;;;5011373;28;20514;-69
2022/10/07 02:12:31;;;;;;;10.50;6.32;;;24.20;56.40;;;;;;4995144;28;20045;-70
2022/10/07 02:15:07;;;;;;;11.75;6.07;;;24.10;56.40;;;;;;5010410;28;20088;-69
2022/10/07 02:17:37;;;;;;;11.60;7.50;;;24.10;56.40;;;;;;5027321;28;20041;-69
2022/10/07 02:20:07;;;;;;;14.52;6.28;;;24.00;56.30;;;;;;5032327;28;20091;-69
2022/10/07 02:22:34;;;;;;;14.02;6.10;;;24.20;56.40;;;;;;5032361;28;20033;-68
2022/10/07 02:25:01;;;;;;;11.38;6.53;;;24.20;56.40;;;;;;5033409;28;20045;-69
2022/10/07 02:27:34;;;;;;;14.90;6.18;;;24.10;56.50;;;;;;5032152;28;20032;-70
2022/10/07 02:30:10;;;;;;;13.82;7.30;;;24.10;56.70;;;;;;5033459;28;20052;-69
2022/10/07 02:32:41;;;;;;;9.57;5.60;;;24.10;56.60;;;;;;5031778;28;20041;-69
2022/10/07 02:35:30;;;;;;;12.18;6.18;;;24.00;56.50;;;;;;5032831;28;20106;-69
2022/10/07 02:38:02;;;;;;;10.07;6.45;;;24.20;56.60;;;;;;5013557;28;20057;-70
2022/10/07 02:40:39;;;;;;;13.65;6.43;;;24.20;56.50;;;;;;5031930;28;20025;-69
2022/10/07 02:43:27;;;;;;;13.00;6.88;;;24.00;56.40;;;;;;5031654;28;20034;-69
2022/10/07 02:46:03;;;;;;;11.55;6.28;;;24.10;56.60;;;;;;5032892;28;20022;-67
2022/10/07 02:48:59;;;;;;;11.23;6.22;;;24.00;56.50;;;;;;5031707;28;20021;-69
2022/10/07 02:51:35;;;;;;;8.65;5.22;;;24.00;56.50;;;;;;4971183;28;20414;-69
2022/10/07 02:54:03;;;;;;;11.07;6.30;;;24.10;56.70;;;;;;4955216;28;20043;-69
2022/10/07 02:56:32;;;;;;;11.10;5.40;;;23.90;56.70;;;;;;4955204;28;20043;-69
2022/10/07 02:59:03;;;;;;;9.80;6.38;;;24.00;56.70;;;;;;4955145;28;20468;-69
2022/10/07 03:01:32;;;;;;;13.98;5.75;;;24.00;56.60;;;;;;4955059;28;20049;-69
2022/10/07 03:03:59;;;;;;;10.93;5.45;;;24.00;56.60;;;;;;4954970;28;20544;-69
2022/10/07 03:06:28;;;;;;;8.10;5.50;;;24.00;56.50;;;;;;4971116;28;20450;-69
2022/10/07 03:08:59;;;;;;;10.43;6.13;;;24.10;56.50;;;;;;4954598;28;20034;-69
2022/10/07 03:11:25;;;;;;;7.88;5.80;;;24.20;56.50;;;;;;4955365;28;20030;-69
2022/10/07 03:13:51;;;;;;;13.40;5.40;;;24.20;56.50;;;;;;4971244;28;20050;-69
2022/10/07 03:16:18;;;;;;;11.98;7.35;;;24.10;56.50;;;;;;4971209;28;20042;-69
2022/10/07 03:18:45;;;;;;;12.13;6.38;;;24.10;56.50;;;;;;4901077;29;20466;-69
2022/10/07 03:21:33;;;;;;;10.93;5.93;;;24.20;56.40;;;;;;4907711;29;20052;-69
2022/10/07 03:24:03;;;;;;;10.23;5.30;;;24.10;56.40;;;;;;4894779;29;20056;-69
2022/10/07 03:26:33;;;;;;;9.43;5.50;;;24.10;56.40;;;;;;4879200;29;20040;-69
2022/10/07 03:29:01;;;;;;;11.23;6.00;;;24.10;56.50;;;;;;4939544;29;20286;-70
2022/10/07 03:31:28;;;;;;;10.02;5.15;;;24.10;56.50;;;;;;4932281;29;20047;-69
2022/10/07 03:33:57;;;;;;;11.85;5.47;;;24.10;56.50;;;;;;4945217;29;20163;-69
2022/10/07 03:36:23;;;;;;;9.68;5.53;;;24.20;56.20;;;;;;4933951;29;20047;-68
2022/10/07 03:38:50;;;;;;;8.45;5.35;;;24.30;56.00;;;;;;4950401;29;20039;-69
2022/10/07 03:41:18;;;;;;;12.15;5.35;;;24.20;55.80;;;;;;4934731;29;20070;-69
2022/10/07 03:43:46;;;;;;;13.65;6.00;;;24.30;55.80;;;;;;4950368;29;20130;-70
2022/10/07 03:46:18;;;;;;;12.40;5.55;;;24.40;55.60;;;;;;4950420;29;20448;-71
2022/10/07 03:48:45;;;;;;;10.73;5.80;;;24.30;55.70;;;;;;4934848;29;20123;-70
2022/10/07 03:51:11;;;;;;;7.32;5.05;;;24.20;55.90;;;;;;4935514;29;20106;-70
2022/10/07 03:53:39;;;;;;;9.98;5.13;;;24.20;56.00;;;;;;4972105;28;20050;-69
2022/10/07 03:56:06;;;;;;;11.98;5.35;;;24.10;55.90;;;;;;4954327;28;20074;-68
2022/10/07 03:58:34;;;;;;;6.00;4.90;;;24.30;55.80;;;;;;4938911;28;20050;-69
2022/10/07 04:01:09;;;;;;;9.52;5.90;;;24.30;55.60;;;;;;4970759;28;20047;-74
2022/10/07 04:03:37;;;;;;;12.63;6.55;;;24.40;55.90;;;;;;4954872;28;20436;-69
2022/10/07 04:06:03;;;;;;;10.48;5.90;;;24.50;59.20;;;;;;4969886;28;20081;-69
2022/10/07 04:08:33;;;;;;;11.15;6.75;;;24.70;59.40;;;;;;4954598;28;20043;-68
2022/10/07 04:11:01;;;;;;;12.02;6.63;;;24.90;60.30;;;;;;4970321;28;20042;-67
2022/10/07 04:13:28;;;;;;;14.77;7.28;;;24.80;60.70;;;;;;4954083;28;20428;-68
2022/10/07 04:15:54;;;;;;;11.23;6.22;;;25.00;62.90;;;;;;4954145;28;20093;-66
2022/10/07 04:18:22;;;;;;;13.50;7.85;;;25.20;65.70;;;;;;4950295;28;20055;-65
2022/10/07 04:20:50;;;;;;;9.77;6.72;;;25.50;69.50;;;;;;4934868;29;20055;-68
2022/10/07 04:23:16;;;;;;;13.50;6.65;;;25.40;72.90;;;;;;4934728;29;20047;-68
2022/10/07 04:25:46;;;;;;;11.77;7.20;;;25.60;75.70;;;;;;4934689;29;20484;-67
2022/10/07 04:28:20;;;;;;;13.77;6.47;;;25.60;77.20;;;;;;5008942;28;20505;-68
2022/10/07 04:30:50;;;;;;;14.52;6.38;;;25.60;72.20;;;;;;4992796;28;20073;-67
2022/10/07 04:33:20;;;;;;;16.30;7.03;;;25.50;69.80;;;;;;4995416;28;20029;-68
2022/10/07 04:35:49;;;;;;;13.40;7.20;;;25.60;67.40;;;;;;5012006;28;20034;-68
2022/10/07 04:38:17;;;;;;;12.75;7.10;;;25.40;67.50;;;;;;4995945;28;20052;-67
2022/10/07 04:40:46;;;;;;;9.40;6.50;;;25.30;67.80;;;;;;4995932;28;20088;-68
2022/10/07 04:43:19;;;;;;;11.40;6.22;;;25.30;66.50;;;;;;5007386;28;20104;-68
2022/10/07 04:45:52;;;;;;;10.38;6.15;;;25.30;64.60;;;;;;4991830;28;20038;-68
2022/10/07 04:48:21;;;;;;;13.10;6.88;;;25.30;64.20;;;;;;4992666;28;20072;-68
2022/10/07 04:50:50;;;;;;;12.52;5.90;;;25.20;63.80;;;;;;5026936;28;20510;-67
2022/10/07 04:53:18;;;;;;;14.68;6.82;;;25.20;62.40;;;;;;5025650;28;20136;-65
2022/10/07 04:55:50;;;;;;;14.18;6.93;;;25.10;61.50;;;;;;5011396;28;20045;-66
2022/10/07 04:58:18;;;;;;;14.05;7.32;;;25.00;64.30;;;;;;5010284;28;20438;-67
2022/10/07 05:00:51;;;;;;;20.05;7.13;;;25.00;62.20;;;;;;5026622;28;20371;-67
2022/10/07 05:03:21;;;;;;;12.90;7.30;;;24.90;61.70;;;;;;5009952;28;20087;-69
2022/10/07 05:05:50;;;;;;;13.25;6.93;;;24.90;61.20;;;;;;5011675;28;20054;-69
2022/10/07 05:08:19;;;;;;;13.50;7.25;;;24.80;60.90;;;;;;4979652;28;20067;-69
2022/10/07 05:10:46;;;;;;;14.98;8.15;;;24.80;60.90;;;;;;4989291;28;20086;-69
2022/10/07 05:13:15;;;;;;;10.25;6.80;;;24.70;60.70;;;;;;4972890;28;20407;-70
2022/10/07 05:15:54;;;;;;;12.43;7.15;;;24.70;60.20;;;;;;4957150;28;20249;-69
2022/10/07 05:18:23;;;;;;;18.63;8.02;;;24.70;60.00;;;;;;4988971;28;20181;-68
2022/10/07 05:20:49;;;;;;;14.00;7.65;;;24.70;59.90;;;;;;4973046;28;20046;-68
2022/10/07 05:23:20;;;;;;;12.15;6.43;;;24.70;59.90;;;;;;4989130;28;20439;-67
2022/10/07 05:25:59;;;;;;;23.50;7.88;;;24.60;59.80;;;;;;4989095;28;20065;-70
2022/10/07 05:28:26;;;;;;;14.85;7.40;;;24.80;59.80;;;;;;4955483;28;20042;-70
2022/10/07 05:31:10;;;;;;;15.25;7.43;;;24.70;59.60;;;;;;4985638;28;20205;-68
2022/10/07 05:33:37;;;;;;;16.35;8.05;;;24.60;59.50;;;;;;4990332;28;20062;-68
2022/10/07 05:36:05;;;;;;;18.25;7.28;;;24.80;59.70;;;;;;4992061;28;20054;-69
2022/10/07 05:38:32;;;;;;;12.32;7.68;;;24.60;59.70;;;;;;4992247;28;20050;-69
2022/10/07 05:41:02;;;;;;;17.08;7.82;;;24.70;59.70;;;;;;4995828;28;20076;-69
2022/10/07 05:43:34;;;;;;;12.27;6.72;;;24.70;59.50;;;;;;5026258;28;20042;-71
2022/10/07 05:46:04;;;;;;;14.77;6.82;;;24.80;59.40;;;;;;5029996;28;20129;-72
2022/10/07 05:48:35;;;;;;;15.93;6.82;;;24.80;59.80;;;;;;5014582;28;20041;-73
2022/10/07 05:51:02;;;;;;;20.80;6.28;;;25.00;63.40;;;;;;5015811;28;20091;-71
2022/10/07 05:53:30;;;;;;;15.52;6.78;;;25.50;64.00;;;;;;5030644;28;20398;-70
2022/10/07 05:55:57;;;;;;;13.82;7.18;;;25.60;65.50;;;;;;5030063;28;20057;-69
2022/10/07 05:58:26;;;;;;;19.33;7.60;;;25.50;60.30;;;;;;5029828;28;20120;-70
2022/10/07 06:00:58;;;;;;;10.93;6.30;;;25.30;59.70;;;;;;5013831;28;20430;-69
2022/10/07 06:03:26;;;;;;;20.02;7.93;;;25.40;59.80;;;;;;5029457;28;20038;-70
2022/10/07 06:05:54;;;;;;;15.93;7.45;;;25.30;60.00;;;;;;4991552;28;20061;-70
2022/10/07 06:08:23;;;;;;;14.75;6.88;;;25.30;60.20;;;;;;4975699;28;20046;-70
2022/10/07 06:13:39;;;;;;;9.10;5.85;;;25.30;60.70;;;;;;4975521;28;20084;-69
2022/10/07 06:16:07;;;;;;;8.43;5.95;;;25.30;59.80;;;;;;4996100;28;20159;-70
2022/10/07 06:18:36;;;;;;;10.65;6.38;;;25.30;59.30;;;;;;4995177;28;20049;-69
2022/10/07 06:21:04;;;;;;;14.38;6.50;;;25.40;58.90;;;;;;4994956;28;20046;-69
2022/10/07 06:23:32;;;;;;;12.45;5.90;;;25.30;58.60;;;;;;4995339;28;20029;-70
2022/10/07 06:26:00;;;;;;;9.02;5.72;;;25.40;58.50;;;;;;5011259;28;20384;-72
2022/10/07 06:28:32;;;;;;;14.05;5.90;;;25.30;58.40;;;;;;4989199;28;20034;-72
2022/10/07 06:31:01;;;;;;;11.52;5.70;;;25.20;58.60;;;;;;4982830;28;20038;-72
2022/10/07 06:33:28;;;;;;;9.85;5.65;;;25.10;60.30;;;;;;4972326;28;20073;-72
2022/10/07 06:35:55;;;;;;;7.65;5.22;;;25.10;60.30;;;;;;4972694;28;20178;-72
2022/10/07 06:38:23;;;;;;;8.93;5.22;;;25.20;59.30;;;;;;4995161;28;20045;-72
2022/10/07 06:41:00;;;;;;;11.23;5.43;;;25.30;58.60;;;;;;5011174;28;20034;-71
2022/10/07 06:43:32;;;;;;;11.88;5.07;;;25.20;58.10;;;;;;4994408;28;20046;-73
2022/10/07 06:46:08;;;;;;;6.72;3.70;;;25.30;58.40;;;;;;4994499;28;20112;-69
2022/10/07 06:48:40;;;;;;;6.88;3.55;;;25.20;58.20;;;;;;4985418;28;20038;-68
2022/10/07 06:51:07;;;;;;;5.40;3.83;;;25.30;58.60;;;;;;4993878;28;20046;-68
2022/10/07 06:53:33;;;;;;;3.65;3.08;;;25.20;58.90;;;;;;5010397;28;20037;-68
2022/10/07 06:56:01;;;;;;;4.88;4.00;;;25.20;59.10;;;;;;4994107;28;20026;-68
2022/10/07 06:58:30;;;;;;;7.43;3.63;;;25.20;58.90;;;;;;5012102;28;20069;-67
2022/10/07 07:01:01;;;;;;;6.13;3.30;;;25.30;58.70;;;;;;5031090;28;20037;-69
2022/10/07 07:03:28;;;;;;;5.85;4.30;;;25.20;58.30;;;;;;5031770;28;20422;-67
2022/10/07 07:05:56;;;;;;;4.70;3.42;;;25.20;58.50;;;;;;5030727;28;20050;-68
2022/10/07 07:08:30;;;;;;;5.28;3.95;;;25.30;58.40;;;;;;5030826;28;20110;-67
2022/10/07 07:11:03;;;;;;;9.50;3.80;;;25.20;58.20;;;;;;5030643;28;20497;-68
2022/10/07 07:13:29;;;;;;;6.72;3.83;;;25.20;58.20;;;;;;5030722;28;20112;-68
2022/10/07 07:15:57;;;;;;;6.65;4.15;;;25.30;58.10;;;;;;5030100;28;20120;-68
2022/10/07 07:18:25;;;;;;;5.78;3.97;;;25.30;57.80;;;;;;5031834;28;20032;-68
2022/10/07 07:20:52;;;;;;;4.15;3.63;;;25.20;57.90;;;;;;5030565;28;20029;-70
2022/10/07 07:23:18;;;;;;;6.50;3.60;;;25.30;57.10;;;;;;5030467;28;20026;-70
2022/10/07 07:25:44;;;;;;;7.85;3.58;;;25.40;57.80;;;;;;5031041;28;20044;-68
2022/10/07 07:28:13;;;;;;;5.43;4.00;;;25.30;57.80;;;;;;5030816;28;20038;-68
2022/10/07 07:30:40;;;;;;;4.72;3.25;;;25.30;57.90;;;;;;5015065;28;20426;-70
2022/10/07 07:33:08;;;;;;;6.68;4.75;;;25.20;58.00;;;;;;5030975;28;20033;-72
2022/10/07 07:35:40;;;;;;;4.07;3.25;;;25.30;58.00;;;;;;5031183;28;20057;-70
2022/10/07 07:38:07;;;;;;;5.85;3.45;;;25.30;58.10;;;;;;5014882;28;20033;-69
2022/10/07 07:40:36;;;;;;;9.18;4.63;;;25.30;58.30;;;;;;5032080;28;20091;-72
2022/10/07 07:43:03;;;;;;;7.55;4.32;;;25.20;58.00;;;;;;5030574;28;20041;-70
2022/10/07 07:45:31;;;;;;;4.80;4.05;;;25.30;58.20;;;;;;5030854;28;20029;-71
2022/10/07 07:47:58;;;;;;;7.93;3.78;;;25.20;58.20;;;;;;5032003;28;20029;-70
2022/10/07 07:50:26;;;;;;;9.10;4.05;;;25.20;58.00;;;;;;5030905;28;20084;-70
2022/10/07 07:52:54;;;;;;;4.40;4.00;;;25.20;57.60;;;;;;5030578;28;20132;-69
2022/10/07 07:55:22;;;;;;;4.55;4.10;;;25.30;57.60;;;;;;5030476;28;20033;-70
2022/10/07 07:57:48;;;;;;;6.43;4.13;;;25.20;57.30;;;;;;5030758;28;20075;-71
2022/10/07 08:00:15;;;;;;;6.70;4.32;;;25.30;57.20;;;;;;5014250;28;20029;-70
2022/10/07 08:02:52;;;;;;;7.63;4.10;;;25.20;57.20;;;;;;5030976;28;20052;-70
2022/10/07 08:05:19;;;;;;;6.50;3.53;;;25.20;57.00;;;;;;5030831;28;20053;-71
2022/10/07 08:07:45;;;;;;;5.10;4.03;;;25.20;57.00;;;;;;5010813;28;20069;-69
2022/10/07 08:10:11;;;;;;;5.75;3.83;;;25.20;57.10;;;;;;5011574;28;20049;-70
2022/10/07 08:12:39;;;;;;;7.50;4.38;;;25.30;56.90;;;;;;5011027;28;20044;-70
2022/10/07 08:15:05;;;;;;;1.35;1.25;;;25.30;56.80;;;;;;4994788;28;20037;-71
2022/10/07 08:17:31;;;;;;;1.35;0.98;;;25.30;56.00;;;;;;5042940;28;20033;-70
2022/10/07 08:19:58;;;;;;;6.05;3.50;;;25.20;56.60;;;;;;4996715;28;20038;-69
2022/10/07 08:22:24;;;;;;;4.82;3.67;;;25.20;58.60;;;;;;5030067;28;20064;-70
2022/10/07 08:24:51;;;;;;;7.47;3.45;;;25.30;57.50;;;;;;5030577;28;20367;-70
2022/10/07 08:27:20;;;;;;;9.55;4.28;;;25.30;57.20;;;;;;4997590;28;20026;-69
2022/10/07 08:29:46;;;;;;;6.57;4.85;;;25.30;57.40;;;;;;5016279;28;20037;-68
2022/10/07 08:32:12;;;;;;;6.85;4.38;;;25.30;57.40;;;;;;5029795;28;20065;-70
2022/10/07 08:34:38;;;;;;;4.60;3.47;;;25.30;57.20;;;;;;5031236;28;20072;-69
2022/10/07 08:37:04;;;;;;;6.50;3.90;;;25.20;56.90;;;;;;5031290;28;20029;-70
2022/10/07 08:39:30;;;;;;;4.28;3.28;;;25.20;56.70;;;;;;5031442;28;20113;-70
2022/10/07 08:42:07;;;;;;;6.63;4.18;;;25.30;57.20;;;;;;5031622;28;20060;-70
2022/10/07 08:44:40;;;;;;;8.48;3.47;;;25.20;57.50;;;;;;5029990;28;20029;-71
2022/10/07 08:47:21;;;;;;;5.10;3.67;;;25.30;56.90;;;;;;5027209;28;20037;-69
2022/10/07 08:49:53;;;;;;;7.78;4.22;;;25.20;58.60;;;;;;5031384;28;20037;-70
2022/10/07 08:52:28;;;;;;;5.17;3.97;;;25.30;58.20;;;;;;5029851;28;20069;-72
2022/10/07 08:54:54;;;;;;;4.68;3.78;;;25.30;58.20;;;;;;5030596;28;20298;-68
2022/10/07 08:58:02;;;;;;;2.00;1.33;;;25.30;58.20;;;;;;5030431;28;20402;-71
2022/10/07 09:00:37;;;;;;;1.95;1.73;;;25.30;61.60;;;;;;4930218;29;20390;-67
2022/10/07 09:03:35;;;;;;;11.70;5.20;;;25.50;61.40;;;;;;4930619;29;20043;-68
2022/10/07 09:06:08;;;;;;;142.80;83.80;;;25.80;59.80;;;;;;4933848;29;20055;-68
2022/10/07 09:08:41;;;;;;;32.83;17.58;;;26.00;58.70;;;;;;4935285;29;20039;-69
2022/10/07 09:11:14;;;;;;;22.38;14.63;;;26.00;59.00;;;;;;4935239;29;20047;-68
2022/10/07 09:13:54;;;;;;;32.17;16.02;;;26.00;59.50;;;;;;4935134;29;20092;-73
2022/10/07 09:16:27;;;;;;;19.65;10.80;;;26.00;58.50;;;;;;4933038;29;20142;-74
2022/10/07 09:19:01;;;;;;;10.73;7.18;;;26.00;58.10;;;;;;4954131;28;20055;-72
2022/10/07 09:21:53;;;;;;;14.80;6.70;;;26.00;57.60;;;;;;4947100;28;20047;-72
2022/10/07 09:24:25;;;;;;;11.43;5.72;;;25.90;56.70;;;;;;4878489;29;20041;-72
2022/10/07 09:26:54;;;;;;;9.75;6.30;;;25.90;56.70;;;;;;4878601;29;20049;-73
2022/10/07 09:29:23;;;;;;;7.25;5.10;;;25.90;56.60;;;;;;4878689;29;20060;-70
2022/10/07 09:31:49;;;;;;;7.80;4.03;;;25.90;56.40;;;;;;4897357;29;20044;-72
2022/10/07 09:34:22;;;;;;;7.15;4.55;;;25.90;56.40;;;;;;4900415;29;20044;-72
2022/10/07 09:37:06;;;;;;;9.25;5.22;;;25.90;58.00;;;;;;4941127;28;20522;-72
2022/10/07 09:39:32;;;;;;;8.32;5.85;;;26.00;63.80;;;;;;4992086;28;20391;-71
2022/10/07 09:42:00;;;;;;;13.68;5.20;;;26.30;63.90;;;;;;4992014;28;20412;-70
2022/10/07 09:44:28;;;;;;;7.63;4.05;;;26.70;70.00;;;;;;4992754;28;20118;-72
2022/10/07 09:46:58;;;;;;;8.25;4.80;;;27.00;72.30;;;;;;4992777;28;20061;-73
2022/10/07 09:49:27;;;;;;;6.95;4.20;;;27.20;67.40;;;;;;4981462;28;20594;-71
2022/10/07 09:52:15;;;;;;;8.35;4.30;;;27.10;62.10;;;;;;4973072;28;20038;-72
2022/10/07 09:54:44;;;;;;;2.20;2.10;;;26.90;61.10;;;;;;4923957;28;20050;-70
2022/10/07 09:57:29;;;;;;;12.93;7.45;;;26.90;62.20;;;;;;4971513;28;20651;-70
2022/10/07 10:00:16;;;;;;;7.13;3.92;;;27.00;61.80;;;;;;4956248;28;20492;-70
2022/10/07 10:02:47;;;;;;;7.22;5.13;;;27.00;61.30;;;;;;5013655;28;20132;-69
2022/10/07 10:05:34;;;;;;;6.97;4.57;;;27.00;58.20;;;;;;5012242;28;20080;-70
2022/10/07 10:08:05;;;;;;;6.57;3.78;;;26.80;56.50;;;;;;4995203;28;20042;-70
2022/10/07 10:10:34;;;;;;;6.88;4.70;;;26.80;56.10;;;;;;5014509;28;20100;-70
2022/10/07 10:13:01;;;;;;;7.25;4.22;;;26.70;56.50;;;;;;5014318;28;20041;-73
2022/10/07 10:15:43;;;;;;;5.00;3.00;;;26.60;57.60;;;;;;5033331;28;20069;-72
2022/10/07 10:18:39;;;;;;;3.37;3.07;;;26.60;57.30;;;;;;5031748;28;20548;-72
2022/10/07 10:21:24;;;;;;;5.13;3.85;;;26.80;58.20;;;;;;4920552;29;20403;-73
2022/10/07 10:23:52;;;;;;;3.55;2.88;;;26.70;57.10;;;;;;4937295;29;20106;-75
2022/10/07 10:26:28;;;;;;;6.40;3.75;;;26.50;54.20;;;;;;4953124;29;20641;-72
2022/10/07 10:29:42;;;;;;;5.22;3.85;;;26.50;54.40;;;;;;4953212;29;20525;-72
2022/10/07 10:32:14;;;;;;;7.35;4.20;;;26.60;55.90;;;;;;4895405;29;20055;-72
2022/10/07 10:35:05;;;;;;;6.90;3.67;;;26.50;55.90;;;;;;4895255;29;20498;-72
2022/10/07 10:37:40;;;;;;;3.75;3.05;;;26.60;56.10;;;;;;4894981;29;20052;-73
2022/10/07 10:40:27;;;;;;;5.03;3.05;;;26.70;56.00;;;;;;4895389;29;20041;-73
2022/10/07 10:43:19;;;;;;;4.55;2.95;;;26.40;56.20;;;;;;4895027;29;20485;-71
2022/10/07 10:46:15;;;;;;;5.55;3.60;;;26.50;55.80;;;;;;4896547;29;20044;-74
2022/10/07 10:48:51;;;;;;;5.00;3.55;;;26.40;55.80;;;;;;4895614;29;20036;-73
2022/10/07 10:51:42;;;;;;;4.30;2.97;;;26.40;56.20;;;;;;4894142;29;20063;-71
2022/10/07 10:54:30;;;;;;;3.75;2.10;;;26.30;56.30;;;;;;4879981;29;20075;-70
2022/10/07 10:57:00;;;;;;;3.95;2.53;;;26.40;54.70;;;;;;4902171;29;20696;-71
2022/10/07 10:59:41;;;;;;;5.13;3.15;;;26.40;55.90;;;;;;4952657;29;20047;-72
2022/10/07 11:02:28;;;;;;;3.65;3.25;;;26.20;56.50;;;;;;4952197;29;20106;-72
2022/10/07 11:05:06;;;;;;;3.30;2.85;;;26.20;56.50;;;;;;4952309;29;20071;-72
2022/10/07 11:07:36;;;;;;;2.95;2.50;;;26.20;55.70;;;;;;4936049;29;20489;-72
2022/10/07 11:10:11;;;;;;;4.82;3.17;;;26.20;56.80;;;;;;5009109;28;20049;-72
2022/10/07 11:12:42;;;;;;;4.57;2.95;;;26.10;57.00;;;;;;5013139;28;20606;-71
2022/10/07 11:15:15;;;;;;;2.95;2.60;;;26.20;56.60;;;;;;5029159;28;20439;-71
2022/10/07 11:17:42;;;;;;;4.05;2.53;;;26.10;56.70;;;;;;5031508;28;20037;-71
2022/10/07 11:20:24;;;;;;;5.22;3.17;;;26.00;56.90;;;;;;5032422;28;20033;-69
2022/10/07 11:22:56;;;;;;;6.80;3.35;;;26.10;56.30;;;;;;5038097;28;20029;-69
2022/10/07 11:25:25;;;;;;;7.25;4.18;;;26.00;58.30;;;;;;5051170;28;20037;-70
2022/10/07 11:27:59;;;;;;;4.47;2.95;;;26.10;57.70;;;;;;5052021;28;20116;-70
2022/10/07 11:30:41;;;;;;;3.88;3.33;;;26.00;56.60;;;;;;5050885;28;20044;-70
2022/10/07 11:33:26;;;;;;;3.70;3.40;;;26.00;56.00;;;;;;5052766;28;20040;-69
2022/10/07 11:36:02;;;;;;;12.65;3.17;;;26.00;55.90;;;;;;5052507;28;20482;-68
2022/10/07 11:38:32;;;;;;;6.13;4.00;;;25.90;55.60;;;;;;5051121;28;20095;-69
2022/10/07 11:41:06;;;;;;;12.43;3.90;;;25.90;55.70;;;;;;5052504;28;20386;-68
2022/10/07 11:43:43;;;;;;;8.38;3.85;;;25.90;55.80;;;;;;5051432;28;20025;-70
2022/10/07 11:46:18;;;;;;;6.53;4.22;;;25.90;55.80;;;;;;5034464;28;20029;-71
2022/10/07 11:48:48;;;;;;;4.45;2.97;;;25.90;56.00;;;;;;5052007;28;20390;-69
2022/10/07 11:51:29;;;;;;;5.65;3.40;;;25.90;55.90;;;;;;5051913;28;20037;-70
2022/10/07 11:53:59;;;;;;;7.72;3.35;;;25.90;55.90;;;;;;5051476;28;20159;-69
2022/10/07 11:56:35;;;;;;;4.78;3.65;;;25.90;56.20;;;;;;5050495;28;20139;-71
2022/10/07 11:59:04;;;;;;;3.17;2.83;;;25.90;56.30;;;;;;5033124;28;20401;-70
2022/10/07 12:01:35;;;;;;;7.20;3.70;;;25.90;56.50;;;;;;4984898;28;20477;-69
2022/10/07 12:04:16;;;;;;;5.13;4.65;;;26.00;56.70;;;;;;5051773;28;20037;-70
2022/10/07 12:07:19;;;;;;;4.97;3.40;;;25.80;56.10;;;;;;5052010;28;20048;-75
2022/10/07 12:10:12;;;;;;;;;;;26.00;56.30;;;;;;5051805;28;20112;-72
2022/10/07 12:12:41;;;;;;;4.72;2.97;;;26.00;56.00;;;;;;4937730;28;19910;-67
2022/10/07 12:15:41;;;;;;;5.68;3.75;;;25.90;55.40;;;;;;4940349;29;20058;-69
2022/10/07 12:18:28;;;;;;;3.40;3.03;;;25.90;55.30;;;;;;4912304;29;20060;-75
2022/10/07 12:21:01;;;;;;;4.20;2.97;;;25.90;55.20;;;;;;4912853;29;20203;-72
2022/10/07 12:23:29;;;;;;;7.78;3.08;;;26.00;55.60;;;;;;4913129;29;20063;-71
2022/10/07 12:26:24;;;;;;;4.72;2.85;;;26.00;55.60;;;;;;4912804;29;20519;-70
2022/10/07 12:28:51;;;;;;;6.07;3.25;;;25.90;55.20;;;;;;4912840;29;20514;-69
2022/10/07 12:31:17;;;;;;;4.10;2.72;;;25.90;55.20;;;;;;4912683;29;20447;-68
2022/10/07 12:34:08;;;;;;;5.10;2.88;;;25.90;55.30;;;;;;4892191;29;20045;-67
2022/10/07 12:36:37;;;;;;;4.43;2.50;;;25.90;55.20;;;;;;4878017;29;20044;-69
2022/10/07 12:39:08;;;;;;;4.45;2.50;;;25.90;55.10;;;;;;4894190;29;20045;-68
2022/10/07 12:41:42;;;;;;;3.13;2.83;;;25.90;55.00;;;;;;4878060;29;20391;-69
2022/10/07 12:44:29;;;;;;;2.75;2.55;;;26.00;55.40;;;;;;4893832;29;20048;-69
2022/10/07 12:47:10;;;;;;;3.58;2.92;;;26.00;55.30;;;;;;4894247;29;20498;-70
2022/10/07 12:49:40;;;;;;;5.13;2.50;;;26.00;55.40;;;;;;4953922;28;20099;-70
2022/10/07 12:52:11;;;;;;;5.07;2.58;;;26.00;55.30;;;;;;4992657;28;20046;-75
2022/10/07 12:54:52;;;;;;;7.18;1.90;;;26.30;55.30;;;;;;4975971;28;20095;-72
2022/10/07 12:57:32;;;;;;;5.00;2.30;;;26.00;55.40;;;;;;5008363;28;20065;-67
2022/10/07 13:00:19;;;;;;;3.63;2.58;;;26.00;55.30;;;;;;5008886;28;20034;-73
2022/10/07 13:03:22;;;;;;;2.70;2.38;;;25.90;54.90;;;;;;5008914;28;20480;-70
2022/10/07 13:06:09;;;;;;;2.78;2.58;;;26.00;55.30;;;;;;5008925;28;20041;-68
2022/10/07 13:09:04;;;;;;;5.80;2.83;;;26.00;55.20;;;;;;5008581;28;20034;-72
2022/10/07 13:11:55;;;;;;;4.50;2.88;;;26.00;54.30;;;;;;5018519;28;20052;-70
2022/10/07 13:14:45;;;;;;;4.68;2.53;;;25.90;54.80;;;;;;5026055;28;20041;-70
2022/10/07 13:17:43;;;;;;;4.50;2.92;;;26.00;55.20;;;;;;5031020;28;20089;-78